Terminal Aerodrome Forecast
Issued by NWS Cleveland, OH

Home | Current Version | Previous Version | Graphics & Text | Print | Product List | Glossary On
Versions: 1 2 3 4 5 6 7 8 9 10 11 12 13 14 15 16 17 18 19 20 21 22 23 24 25 26 27 28 29 30 31 32 33 34 35 36 37 38
000
FTUS41 KCLE 211900 AAA
TAFYNG
TAF AMD
KYNG 211952Z 2120/2218 23010G16KT P6SM VCSH BKN035
      TEMPO 2120/2124 5SM -TSRA BR BKN020CB BKN050
     FM220000 23008KT P6SM -SHRA BKN035 BKN100
     FM220600 24007KT 6SM BR VCTS BKN030CB OVC100
     FM221200 24007KT 6SM BR VCSH BKN030=

USA.gov is the U.S. government's official web portal to all federal, state and local government web resources and services.